Red Cloud, Nebraska
Current Conditions -  °F | °C
As of 9:53 AM on Tuesday 21 Oct 2014 (Local Time) from KHSI Reporting Station
Clear Clear  
Wind Chill: 55°   Ceiling: Unl
Heat Index: 55°   Visibility: 10mi
Dew Point: 43°   Wind: 6mph
Humidity: 64%   Direction: 190°S
Pressure: 30.09"   Gusts: NA
Location:  40.09°N, 98.52°W
Report Text: KHSI 211453Z AUTO 19005KT 10SM CLR 13/06 A3009 RMK AO2 SLP190 T01280061 53007
Loading
Personal Weather Stations






























Interactive Weather Map
Tropical Storm Tracking
New forecast layout! Learn more

10-Day Weather Forecast

Advertisements
Track Severe Weather on mobile